Time;durP1;ratioP1;P1;durP2;ratioP2;P2;SDS_P1;SDS_P2;PMS_P1;PMS_P2;Temp;Humidity;BMP_temperature;BMP_pressure;BME280_temperature;BME280_humidity;BME280_pressure;Samples;Min_cycle;Max_cycle;Signal;HPM_P1;HPM_P2
2021/03/14 00:01:04;;;;;;;7.45;4.82;;;4.80;95.00;;;;;;5070829;28;20204;-66
2021/03/14 00:03:32;;;;;;;5.50;3.85;;;4.80;95.00;;;;;;5071213;28;20209;-65
2021/03/14 00:06:00;;;;;;;9.10;5.60;;;4.70;95.30;;;;;;5067691;28;20662;-66
2021/03/14 00:08:29;;;;;;;6.10;4.05;;;4.60;95.50;;;;;;5074148;28;20230;-66
2021/03/14 00:10:58;;;;;;;3.72;3.08;;;4.60;95.50;;;;;;5066685;28;20270;-65
2021/03/14 00:13:31;;;;;;;5.03;4.07;;;4.70;95.30;;;;;;5073277;28;20392;-66
2021/03/14 00:15:58;;;;;;;4.63;3.13;;;4.70;95.30;;;;;;5072936;28;20374;-66
2021/03/14 00:18:28;;;;;;;5.32;3.60;;;4.80;95.00;;;;;;5074142;28;20232;-66
2021/03/14 00:20:57;;;;;;;6.25;3.72;;;4.80;95.10;;;;;;5075008;28;20202;-66
2021/03/14 00:23:24;;;;;;;4.38;3.58;;;4.70;95.30;;;;;;5074966;28;20213;-67
2021/03/14 00:25:51;;;;;;;8.43;2.88;;;4.60;95.50;;;;;;5073869;28;20241;-66
2021/03/14 00:28:18;;;;;;;6.70;2.97;;;4.60;95.50;;;;;;5071781;28;20757;-66
2021/03/14 00:30:46;;;;;;;4.68;3.72;;;4.60;95.50;;;;;;5076890;28;20221;-66
2021/03/14 00:33:13;;;;;;;6.03;3.35;;;4.60;95.40;;;;;;5075542;28;20226;-66
2021/03/14 00:35:41;;;;;;;6.50;3.58;;;4.60;95.40;;;;;;5080178;28;20225;-66
2021/03/14 00:38:08;;;;;;;6.13;3.65;;;4.60;95.40;;;;;;5062397;28;20409;-66
2021/03/14 00:40:35;;;;;;;3.35;3.05;;;4.70;95.30;;;;;;5079297;28;20238;-65
2021/03/14 00:43:04;;;;;;;3.58;3.10;;;4.70;95.40;;;;;;5080277;28;20296;-66
2021/03/14 00:45:33;;;;;;;6.15;3.22;;;4.70;95.30;;;;;;5079588;28;20249;-65
2021/03/14 00:48:02;;;;;;;5.70;3.15;;;4.80;95.10;;;;;;5052014;28;20441;-65
2021/03/14 00:50:32;;;;;;;3.50;3.20;;;4.70;95.10;;;;;;5076077;28;20205;-66
2021/03/14 00:52:58;;;;;;;5.38;3.15;;;4.80;95.00;;;;;;5080114;28;20680;-66
2021/03/14 00:55:25;;;;;;;2.75;2.42;;;4.70;95.10;;;;;;5047017;28;20220;-66
2021/03/14 00:57:52;;;;;;;7.18;3.40;;;4.80;95.10;;;;;;5080338;28;20264;-66
2021/03/14 01:00:19;;;;;;;3.55;3.25;;;4.80;95.10;;;;;;5080344;28;20218;-66
2021/03/14 01:02:45;;;;;;;3.40;3.10;;;4.80;95.00;;;;;;5072426;28;20208;-66
2021/03/14 01:05:13;;;;;;;2.70;2.50;;;5.40;95.00;;;;;;5068876;28;20210;-66
2021/03/14 01:07:39;;;;;;;3.85;3.08;;;4.90;94.90;;;;;;5077398;28;20207;-65
2021/03/14 01:10:07;;;;;;;5.15;3.53;;;4.90;94.80;;;;;;5077195;28;20198;-66
2021/03/14 01:12:37;;;;;;;5.75;3.40;;;4.80;94.90;;;;;;5075336;28;20202;-66
2021/03/14 01:15:11;;;;;;;3.75;2.92;;;4.90;94.80;;;;;;5078290;28;20210;-66
2021/03/14 01:17:37;;;;;;;3.03;2.60;;;4.80;94.80;;;;;;5062278;28;20239;-66
2021/03/14 01:20:08;;;;;;;3.58;3.15;;;4.90;94.90;;;;;;5078371;28;20270;-66
2021/03/14 01:22:35;;;;;;;3.70;3.40;;;4.80;95.20;;;;;;5075506;28;20209;-66
2021/03/14 01:25:02;;;;;;;4.43;3.20;;;4.90;94.80;;;;;;5056362;28;20235;-66
2021/03/14 01:27:29;;;;;;;6.13;2.83;;;4.90;94.70;;;;;;5065613;28;20210;-67
2021/03/14 01:29:55;;;;;;;3.75;3.45;;;4.90;94.70;;;;;;5072485;28;20210;-66
2021/03/14 01:32:22;;;;;;;3.30;2.95;;;4.90;94.70;;;;;;5079279;28;20216;-66
2021/03/14 01:34:49;;;;;;;4.38;3.08;;;4.90;94.80;;;;;;5074704;28;20245;-65
2021/03/14 01:37:18;;;;;;;3.45;2.45;;;5.00;94.90;;;;;;5078942;28;20308;-65
2021/03/14 01:39:45;;;;;;;2.53;2.33;;;4.90;94.80;;;;;;5066689;28;20458;-66
2021/03/14 01:42:13;;;;;;;4.40;3.30;;;4.90;94.90;;;;;;5076332;28;20305;-68
2021/03/14 01:44:47;;;;;;;6.38;2.70;;;4.90;95.00;;;;;;5078645;28;20578;-66
2021/03/14 01:47:13;;;;;;;4.72;2.83;;;4.80;95.20;;;;;;5077720;28;20206;-65
2021/03/14 01:49:40;;;;;;;3.25;2.95;;;4.80;95.20;;;;;;5078792;28;20436;-66
2021/03/14 01:52:07;;;;;;;3.15;2.50;;;4.90;95.10;;;;;;5077551;28;20207;-65
2021/03/14 01:54:34;;;;;;;6.15;3.67;;;5.00;94.90;;;;;;5078654;28;20207;-67
2021/03/14 01:57:01;;;;;;;3.75;2.92;;;5.00;94.90;;;;;;5077708;28;20210;-65
2021/03/14 01:59:28;;;;;;;5.50;2.90;;;5.00;95.00;;;;;;5078642;28;20443;-65
2021/03/14 02:01:54;;;;;;;9.15;3.50;;;5.00;94.80;;;;;;5078342;28;20514;-66
2021/03/14 02:04:21;;;;;;;3.55;3.00;;;5.00;95.00;;;;;;5069328;28;20222;-66
2021/03/14 02:06:48;;;;;;;5.43;3.28;;;5.00;95.00;;;;;;5069416;28;20202;-66
2021/03/14 02:09:14;;;;;;;6.60;2.92;;;5.00;95.20;;;;;;5078162;28;20211;-66
2021/03/14 02:11:45;;;;;;;3.22;2.92;;;5.00;95.00;;;;;;5077964;28;20489;-66
2021/03/14 02:14:13;;;;;;;4.75;3.03;;;5.00;94.90;;;;;;5068639;28;20207;-65
2021/03/14 02:16:42;;;;;;;4.05;3.30;;;5.00;95.00;;;;;;5078892;28;20326;-66
2021/03/14 02:19:16;;;;;;;5.07;3.10;;;4.90;95.10;;;;;;5077895;28;20602;-65
2021/03/14 02:21:43;;;;;;;2.95;2.75;;;4.90;95.00;;;;;;5078123;28;20292;-65
2021/03/14 02:24:22;;;;;;;2.97;2.78;;;4.90;95.00;;;;;;5060073;28;20282;-66
2021/03/14 02:27:04;;;;;;;3.15;2.92;;;4.90;95.00;;;;;;5073695;28;20296;-66
2021/03/14 02:29:33;;;;;;;7.15;3.50;;;4.90;95.00;;;;;;5074919;28;20471;-66
2021/03/14 02:32:01;;;;;;;5.63;3.53;;;4.80;95.10;;;;;;5059045;28;20205;-65
2021/03/14 02:34:32;;;;;;;10.60;3.70;;;4.70;95.30;;;;;;5077552;28;20552;-66
2021/03/14 02:37:00;;;;;;;4.35;3.25;;;4.70;95.40;;;;;;5077954;28;20232;-65
2021/03/14 02:39:28;;;;;;;2.47;2.25;;;4.70;95.30;;;;;;5077297;28;20226;-66
2021/03/14 02:41:58;;;;;;;4.05;3.55;;;4.70;95.40;;;;;;5078061;28;20203;-65
2021/03/14 02:44:35;;;;;;;3.33;2.45;;;4.70;95.30;;;;;;5075660;28;20243;-66
2021/03/14 02:47:04;;;;;;;7.22;3.40;;;4.60;95.30;;;;;;5065538;28;20706;-66
2021/03/14 02:49:32;;;;;;;3.78;2.85;;;4.60;95.30;;;;;;5066452;28;20550;-66
2021/03/14 02:52:00;;;;;;;6.22;3.50;;;4.70;95.40;;;;;;5065386;28;20205;-65
2021/03/14 02:54:27;;;;;;;4.47;3.35;;;4.50;95.50;;;;;;5074662;28;20218;-66
2021/03/14 02:56:55;;;;;;;4.40;4.00;;;4.50;95.60;;;;;;5071438;28;20206;-65
2021/03/14 02:59:22;;;;;;;8.52;4.22;;;4.60;95.50;;;;;;5074656;28;20244;-64
2021/03/14 03:01:51;;;;;;;3.83;3.40;;;4.60;95.40;;;;;;5077687;28;20210;-64
2021/03/14 03:04:25;;;;;;;9.18;4.85;;;4.60;95.40;;;;;;5073872;28;20450;-64
2021/03/14 03:06:57;;;;;;;3.08;2.88;;;4.70;95.40;;;;;;5073982;28;20239;-66
2021/03/14 03:09:24;;;;;;;4.63;3.42;;;4.70;95.30;;;;;;5061448;28;20255;-67
2021/03/14 03:11:53;;;;;;;4.00;3.40;;;4.70;95.20;;;;;;5074894;28;20210;-65
2021/03/14 03:14:27;;;;;;;4.47;3.50;;;4.70;95.30;;;;;;5067756;28;20202;-65
2021/03/14 03:16:54;;;;;;;3.78;3.58;;;4.70;95.20;;;;;;5069046;28;20206;-66
2021/03/14 03:19:22;;;;;;;6.30;3.00;;;4.60;95.30;;;;;;5067840;28;20235;-66
2021/03/14 03:21:50;;;;;;;4.00;3.22;;;4.70;95.20;;;;;;5067406;28;20216;-66
2021/03/14 03:24:17;;;;;;;3.30;3.00;;;4.60;95.10;;;;;;5076543;28;20393;-66
2021/03/14 03:26:47;;;;;;;3.10;2.80;;;4.50;95.20;;;;;;5074495;28;20408;-66
2021/03/14 03:29:15;;;;;;;6.93;4.45;;;4.50;95.20;;;;;;5073054;28;20274;-66
2021/03/14 03:31:44;;;;;;;2.70;2.50;;;4.50;95.20;;;;;;5074169;28;20197;-66
2021/03/14 03:34:12;;;;;;;3.80;3.17;;;4.50;95.20;;;;;;5073414;28;20214;-64
2021/03/14 03:36:41;;;;;;;2.63;2.42;;;4.50;95.10;;;;;;5069572;28;20237;-64
2021/03/14 03:39:10;;;;;;;4.15;2.63;;;4.50;95.20;;;;;;5070940;28;20428;-64
2021/03/14 03:41:55;;;;;;;4.60;3.08;;;4.40;95.10;;;;;;5060586;28;20214;-65
2021/03/14 03:44:23;;;;;;;2.80;2.60;;;4.50;95.10;;;;;;5076002;28;20237;-66
2021/03/14 03:46:56;;;;;;;3.42;3.13;;;4.60;95.00;;;;;;5077243;28;20522;-66
2021/03/14 03:49:27;;;;;;;3.28;2.88;;;4.50;94.90;;;;;;5077047;28;20220;-68
2021/03/14 03:51:55;;;;;;;4.30;3.70;;;4.60;94.90;;;;;;5073449;28;20256;-64
2021/03/14 03:54:22;;;;;;;3.47;3.17;;;4.60;94.90;;;;;;5075961;28;20209;-64
2021/03/14 03:56:53;;;;;;;4.53;3.30;;;4.50;94.90;;;;;;5076388;28;20206;-65
2021/03/14 03:59:22;;;;;;;3.38;3.10;;;4.60;94.80;;;;;;5076580;28;20242;-65
2021/03/14 04:01:49;;;;;;;2.67;2.45;;;4.60;94.70;;;;;;5077895;28;20415;-64
2021/03/14 04:04:18;;;;;;;4.47;2.67;;;4.60;94.80;;;;;;5063078;28;20212;-64
2021/03/14 04:06:47;;;;;;;5.20;2.90;;;4.50;94.80;;;;;;5080664;28;20205;-65
2021/03/14 04:09:14;;;;;;;3.97;3.28;;;4.40;95.20;;;;;;5080744;28;20546;-65
2021/03/14 04:11:42;;;;;;;3.17;2.88;;;4.20;95.40;;;;;;5079875;28;20213;-66
2021/03/14 04:14:11;;;;;;;4.13;2.45;;;4.40;95.30;;;;;;5067560;28;20312;-65
2021/03/14 04:16:38;;;;;;;9.07;2.90;;;4.30;95.20;;;;;;5049778;28;20214;-65
2021/03/14 04:19:11;;;;;;;4.45;3.47;;;4.40;95.10;;;;;;5078790;28;20217;-65
2021/03/14 04:21:40;;;;;;;4.88;3.20;;;4.40;95.10;;;;;;5080013;28;20201;-65
2021/03/14 04:24:10;;;;;;;6.10;3.42;;;4.40;95.10;;;;;;5079752;28;20273;-65
2021/03/14 04:26:43;;;;;;;6.95;3.05;;;4.40;95.10;;;;;;5078437;28;20220;-66
2021/03/14 04:29:11;;;;;;;2.97;2.78;;;4.90;95.30;;;;;;5076403;28;20205;-66
2021/03/14 04:31:44;;;;;;;3.65;2.75;;;4.40;95.00;;;;;;5078385;28;20202;-66
2021/03/14 04:34:13;;;;;;;4.18;3.22;;;4.30;95.30;;;;;;5060300;28;20214;-65
2021/03/14 04:36:41;;;;;;;3.90;3.05;;;4.30;95.20;;;;;;5080244;28;20244;-65
2021/03/14 04:39:09;;;;;;;4.82;3.20;;;4.40;95.30;;;;;;5080240;28;20273;-65
2021/03/14 04:41:37;;;;;;;6.75;3.95;;;4.40;95.10;;;;;;5080149;28;20423;-65
2021/03/14 04:44:05;;;;;;;3.47;3.08;;;4.20;95.30;;;;;;5067842;28;20531;-65
2021/03/14 04:46:33;;;;;;;5.07;3.90;;;4.00;95.70;;;;;;5059490;28;20225;-65
2021/03/14 04:49:00;;;;;;;8.07;4.22;;;4.00;95.80;;;;;;5070941;28;20274;-65
2021/03/14 04:51:35;;;;;;;5.97;3.97;;;4.00;96.10;;;;;;5071724;28;20206;-65
2021/03/14 04:54:03;;;;;;;5.90;3.70;;;3.80;96.20;;;;;;5075079;28;20210;-66
2021/03/14 04:56:30;;;;;;;4.43;4.03;;;4.00;96.10;;;;;;5073910;28;20217;-65
2021/03/14 04:58:58;;;;;;;5.20;4.40;;;3.90;96.30;;;;;;5075551;28;20475;-66
2021/03/14 05:01:26;;;;;;;6.57;5.45;;;3.80;96.40;;;;;;5074394;28;20213;-65
2021/03/14 05:03:56;;;;;;;7.25;4.43;;;3.70;96.80;;;;;;5077777;28;20209;-65
2021/03/14 05:06:24;;;;;;;5.80;5.07;;;3.70;96.70;;;;;;5062149;28;20228;-65
2021/03/14 05:08:51;;;;;;;5.95;4.47;;;3.50;97.10;;;;;;5075094;28;20212;-66
2021/03/14 05:11:19;;;;;;;6.20;5.05;;;3.40;97.30;;;;;;5076766;28;20244;-65
2021/03/14 05:13:47;;;;;;;4.25;3.85;;;3.40;97.50;;;;;;5071677;28;20273;-65
2021/03/14 05:16:15;;;;;;;5.35;3.83;;;3.40;97.40;;;;;;5068260;28;20280;-65
2021/03/14 05:18:45;;;;;;;7.25;4.10;;;3.40;97.50;;;;;;5069993;28;20256;-64
2021/03/14 05:21:13;;;;;;;7.10;5.07;;;3.40;97.50;;;;;;5075924;28;20251;-64
2021/03/14 05:23:40;;;;;;;5.45;4.93;;;3.40;97.40;;;;;;5074412;28;20208;-64
2021/03/14 05:26:12;;;;;;;8.95;6.50;;;3.50;97.50;;;;;;5074718;28;20525;-64
2021/03/14 05:28:40;;;;;;;8.07;5.53;;;3.70;97.20;;;;;;5076137;28;20313;-64
2021/03/14 05:31:26;;;;;;;5.55;4.55;;;3.80;97.00;;;;;;5075446;28;20221;-65
2021/03/14 05:33:54;;;;;;;4.90;4.43;;;3.70;97.10;;;;;;5074608;28;20208;-65
2021/03/14 05:36:20;;;;;;;4.82;4.43;;;3.70;96.90;;;;;;5079590;28;20225;-65
2021/03/14 05:38:47;;;;;;;6.03;3.78;;;3.60;97.10;;;;;;5067668;28;20603;-65
2021/03/14 05:41:14;;;;;;;5.05;4.00;;;3.70;96.90;;;;;;5075739;28;20205;-66
2021/03/14 05:43:42;;;;;;;6.28;4.07;;;3.80;96.80;;;;;;5078609;28;20210;-66
2021/03/14 05:46:10;;;;;;;5.20;3.90;;;4.00;96.40;;;;;;5077479;28;20238;-66
2021/03/14 05:48:38;;;;;;;8.82;4.60;;;4.20;96.30;;;;;;5079338;28;20232;-65
2021/03/14 05:51:07;;;;;;;7.35;4.55;;;4.40;95.70;;;;;;5078286;28;20222;-65
2021/03/14 05:53:38;;;;;;;4.50;3.50;;;4.50;95.50;;;;;;5054688;28;20237;-65
2021/03/14 05:56:06;;;;;;;8.63;4.15;;;4.50;95.20;;;;;;5065568;28;20211;-66
2021/03/14 05:58:36;;;;;;;5.60;3.90;;;4.60;95.10;;;;;;5071653;28;20230;-66
2021/03/14 06:01:08;;;;;;;5.82;4.72;;;4.60;95.20;;;;;;5075040;28;20206;-66
2021/03/14 06:03:36;;;;;;;5.72;3.60;;;4.60;95.20;;;;;;5054484;28;20231;-66
2021/03/14 06:06:07;;;;;;;6.57;4.28;;;4.90;94.80;;;;;;5074983;28;20265;-65
2021/03/14 06:08:34;;;;;;;4.28;3.75;;;5.10;94.20;;;;;;5054450;28;20207;-67
2021/03/14 06:11:03;;;;;;;5.15;4.75;;;5.20;93.80;;;;;;5074902;28;20273;-67
2021/03/14 06:13:29;;;;;;;10.77;3.90;;;5.30;93.50;;;;;;5075042;28;20534;-66
2021/03/14 06:15:56;;;;;;;3.45;3.15;;;5.30;93.40;;;;;;5068464;28;20253;-66
2021/03/14 06:18:24;;;;;;;3.83;2.97;;;5.20;93.50;;;;;;5067184;28;20231;-65
2021/03/14 06:20:51;;;;;;;8.35;3.30;;;5.50;93.70;;;;;;5059895;28;20203;-65
2021/03/14 06:23:20;;;;;;;3.15;2.83;;;6.70;92.20;;;;;;5046607;28;20211;-66
2021/03/14 06:25:52;;;;;;;4.38;3.10;;;8.40;87.90;;;;;;5066901;28;20211;-65
2021/03/14 06:28:33;;;;;;;5.80;4.10;;;9.90;81.10;;;;;;5073389;28;20213;-65
2021/03/14 06:31:15;;;;;;;5.32;3.83;;;10.70;75.90;;;;;;5068862;28;20221;-65
2021/03/14 06:33:42;;;;;;;5.25;3.55;;;11.50;72.30;;;;;;5062831;28;20206;-65
2021/03/14 06:36:16;;;;;;;4.93;3.75;;;12.40;67.50;;;;;;5077295;28;20294;-65
2021/03/14 06:38:43;;;;;;;5.35;4.10;;;13.30;64.20;;;;;;5077736;28;20241;-65
2021/03/14 06:41:11;;;;;;;6.03;4.43;;;13.30;62.40;;;;;;5063279;28;20208;-65
2021/03/14 06:43:58;;;;;;;5.55;4.45;;;13.60;62.00;;;;;;5070181;28;20219;-65
2021/03/14 06:46:30;;;;;;;5.18;4.68;;;14.00;60.50;;;;;;5077082;28;20199;-65
2021/03/14 06:49:04;;;;;;;5.70;5.20;;;14.00;59.30;;;;;;5078047;28;20242;-66
2021/03/14 06:51:46;;;;;;;5.10;4.80;;;14.20;59.30;;;;;;5077873;28;20386;-65
2021/03/14 06:54:24;;;;;;;5.30;4.47;;;13.80;58.80;;;;;;5073727;28;20219;-66
2021/03/14 06:57:02;;;;;;;5.50;4.80;;;14.00;59.70;;;;;;5070635;28;20215;-67
2021/03/14 06:59:30;;;;;;;6.32;5.72;;;14.20;57.80;;;;;;5074181;28;20236;-65
2021/03/14 07:02:02;;;;;;;7.45;5.85;;;14.30;57.80;;;;;;5070094;28;20204;-66
2021/03/14 07:04:47;;;;;;;5.10;4.70;;;14.50;56.50;;;;;;5073696;28;20215;-66
2021/03/14 07:07:17;;;;;;;5.80;5.27;;;15.20;55.20;;;;;;5073174;28;20434;-66
2021/03/14 07:09:44;;;;;;;5.40;4.90;;;15.80;52.90;;;;;;5074372;28;20418;-66
2021/03/14 07:12:22;;;;;;;6.70;4.87;;;16.70;50.20;;;;;;5069663;28;20422;-66
2021/03/14 07:14:49;;;;;;;5.87;5.23;;;16.90;47.90;;;;;;5073608;28;20740;-66
2021/03/14 07:17:52;;;;;;;5.73;5.23;;;16.00;49.60;;;;;;5070235;28;20458;-65
2021/03/14 07:20:22;;;;;;;7.27;5.10;;;16.00;49.90;;;;;;5064047;28;20677;-66
2021/03/14 07:23:03;;;;;;;5.50;4.90;;;16.30;49.30;;;;;;5057384;28;20416;-65
2021/03/14 07:25:32;;;;;;;6.80;5.40;;;16.00;49.40;;;;;;5056585;28;20589;-66
2021/03/14 07:27:59;;;;;;;5.33;4.93;;;17.20;45.80;;;;;;5073430;28;20427;-65
2021/03/14 07:30:28;;;;;;;5.00;4.67;;;17.50;45.20;;;;;;5071994;28;20455;-66
2021/03/14 07:32:55;;;;;;;5.63;5.10;;;16.60;45.30;;;;;;5072856;28;20510;-67
2021/03/14 07:35:23;;;;;;;11.57;6.30;;;15.90;47.20;;;;;;5076565;28;20434;-66
2021/03/14 07:37:52;;;;;;;8.70;7.27;;;15.00;48.10;;;;;;5062176;28;20609;-65
2021/03/14 07:40:22;;;;;;;17.23;6.60;;;14.90;49.90;;;;;;5070713;28;20555;-67
2021/03/14 07:43:00;;;;;;;4.90;4.50;;;16.20;47.50;;;;;;5076772;28;20824;-65
2021/03/14 07:45:29;;;;;;;6.00;4.30;;;16.20;45.50;;;;;;5077838;28;20447;-67
2021/03/14 07:47:57;;;;;;;4.90;4.50;;;14.50;48.50;;;;;;5076986;28;20482;-67
2021/03/14 07:50:45;;;;;;;4.93;4.00;;;13.40;52.60;;;;;;5077011;28;20386;-66
2021/03/14 07:53:16;;;;;;;4.20;3.90;;;12.10;56.50;;;;;;5073663;28;20210;-67
2021/03/14 07:55:51;;;;;;;3.65;3.35;;;11.60;56.90;;;;;;5073756;28;20206;-66
2021/03/14 07:58:22;;;;;;;4.57;4.18;;;11.70;57.30;;;;;;5070428;28;20226;-66
2021/03/14 08:00:49;;;;;;;5.65;4.03;;;11.50;57.70;;;;;;5073798;28;20203;-66
2021/03/14 08:03:16;;;;;;;11.98;3.53;;;11.20;58.10;;;;;;5073311;28;20203;-66
2021/03/14 08:05:43;;;;;;;6.70;3.33;;;11.10;59.60;;;;;;5076497;28;20383;-66
2021/03/14 08:08:17;;;;;;;3.25;3.05;;;11.20;58.70;;;;;;5072583;28;20213;-66
2021/03/14 08:10:45;;;;;;;4.82;3.63;;;11.30;58.80;;;;;;5075302;28;20400;-66
2021/03/14 08:13:17;;;;;;;4.40;3.80;;;11.30;58.30;;;;;;5075946;28;20703;-66
2021/03/14 08:15:58;;;;;;;3.80;3.50;;;11.20;59.40;;;;;;5068694;28;20214;-65
2021/03/14 08:18:41;;;;;;;4.00;3.70;;;11.00;59.80;;;;;;5071692;28;20271;-67
2021/03/14 08:21:19;;;;;;;3.30;3.10;;;10.90;60.10;;;;;;5070868;28;20213;-67
2021/03/14 08:23:59;;;;;;;3.60;3.30;;;10.80;61.20;;;;;;5056589;28;20423;-66
2021/03/14 08:26:34;;;;;;;3.63;3.42;;;11.10;59.80;;;;;;5072554;28;20774;-65
2021/03/14 08:29:10;;;;;;;3.90;3.05;;;11.40;59.20;;;;;;5070212;28;20246;-66
2021/03/14 08:31:51;;;;;;;4.20;3.85;;;11.60;58.20;;;;;;5073340;28;20376;-65
2021/03/14 08:34:30;;;;;;;3.72;3.20;;;11.50;59.20;;;;;;5075587;28;20214;-66
2021/03/14 08:36:57;;;;;;;3.30;3.00;;;11.50;59.50;;;;;;5059212;28;20230;-66
2021/03/14 08:39:31;;;;;;;3.83;3.55;;;12.60;57.00;;;;;;5075367;28;20218;-65
2021/03/14 08:41:59;;;;;;;6.07;3.55;;;12.90;54.70;;;;;;5076693;28;20363;-66
2021/03/14 08:44:43;;;;;;;3.92;3.20;;;12.90;54.20;;;;;;5075606;28;20238;-66
2021/03/14 08:47:14;;;;;;;4.25;3.13;;;12.30;55.00;;;;;;5066862;28;20260;-66
2021/03/14 08:49:46;;;;;;;4.90;3.50;;;11.50;57.50;;;;;;5078399;28;20209;-68
2021/03/14 08:52:13;;;;;;;4.25;3.78;;;10.90;59.50;;;;;;5078693;28;20285;-65
2021/03/14 08:54:42;;;;;;;4.45;3.58;;;10.50;62.20;;;;;;5076688;28;20228;-67
2021/03/14 08:57:11;;;;;;;6.43;5.25;;;10.20;63.20;;;;;;5071357;28;20215;-64
2021/03/14 08:59:46;;;;;;;4.93;3.67;;;10.00;64.70;;;;;;5070510;28;20540;-66
2021/03/14 09:02:28;;;;;;;4.38;3.95;;;10.00;65.20;;;;;;5074931;28;20209;-65
2021/03/14 09:05:12;;;;;;;4.32;4.05;;;9.90;65.40;;;;;;5074875;28;20276;-66
2021/03/14 09:07:43;;;;;;;4.68;4.28;;;9.80;65.70;;;;;;5060866;28;20193;-66
2021/03/14 09:10:18;;;;;;;4.38;3.70;;;9.70;66.60;;;;;;5072566;28;20212;-68
2021/03/14 09:12:56;;;;;;;4.43;3.80;;;9.70;67.00;;;;;;5070536;28;20284;-67
2021/03/14 09:15:23;;;;;;;5.53;3.40;;;9.50;67.70;;;;;;5071749;28;20196;-65
2021/03/14 09:17:50;;;;;;;3.90;3.60;;;9.40;68.10;;;;;;5075023;28;20209;-65
2021/03/14 09:20:24;;;;;;;4.07;3.78;;;9.70;67.40;;;;;;5069441;28;20222;-66
2021/03/14 09:22:50;;;;;;;4.05;3.35;;;10.10;66.80;;;;;;5073870;28;20408;-65
2021/03/14 09:25:17;;;;;;;3.67;3.47;;;9.90;67.50;;;;;;5077526;28;20404;-66
2021/03/14 09:27:45;;;;;;;3.90;3.65;;;10.00;67.70;;;;;;5067080;28;20207;-65
2021/03/14 09:30:19;;;;;;;3.67;3.40;;;9.90;67.20;;;;;;5071864;28;20245;-66
2021/03/14 09:32:52;;;;;;;3.15;3.03;;;9.90;67.60;;;;;;5066740;28;20206;-66
2021/03/14 09:35:25;;;;;;;4.78;3.40;;;9.80;68.30;;;;;;5073263;28;20280;-68
2021/03/14 09:37:59;;;;;;;5.72;4.28;;;9.60;69.20;;;;;;5077146;28;20209;-65
2021/03/14 09:40:37;;;;;;;4.13;3.70;;;9.60;70.10;;;;;;5075858;28;20589;-66
2021/03/14 09:43:22;;;;;;;7.78;3.58;;;9.80;70.50;;;;;;5074916;28;20388;-66
2021/03/14 09:45:56;;;;;;;3.70;3.40;;;10.10;69.60;;;;;;5057601;28;20252;-67
2021/03/14 09:48:28;;;;;;;6.75;3.92;;;10.30;69.40;;;;;;5071996;28;20209;-67
2021/03/14 09:50:56;;;;;;;3.65;3.35;;;10.50;68.10;;;;;;5075954;28;20374;-67
2021/03/14 09:53:35;;;;;;;6.90;3.88;;;10.10;67.60;;;;;;5073416;28;20206;-67
2021/03/14 09:56:07;;;;;;;3.47;3.22;;;9.90;68.60;;;;;;5069154;28;20205;-67
2021/03/14 09:58:35;;;;;;;3.40;3.20;;;9.80;68.60;;;;;;5072060;28;20535;-67
2021/03/14 10:01:02;;;;;;;4.22;3.53;;;9.80;69.00;;;;;;5077781;28;20204;-66
2021/03/14 10:03:31;;;;;;;5.32;4.85;;;9.80;70.00;;;;;;5075124;28;20204;-66
2021/03/14 10:06:02;;;;;;;6.57;5.45;;;10.10;69.40;;;;;;5075634;28;20228;-67
2021/03/14 10:08:34;;;;;;;5.82;3.88;;;10.30;67.40;;;;;;5073263;28;20216;-65
2021/03/14 10:11:06;;;;;;;4.38;4.07;;;10.50;67.40;;;;;;5073800;28;20217;-66
2021/03/14 10:13:34;;;;;;;3.88;3.58;;;11.10;66.10;;;;;;5067204;28;20301;-66
2021/03/14 10:16:05;;;;;;;5.25;3.70;;;11.50;62.70;;;;;;5075382;28;20210;-65
2021/03/14 10:18:32;;;;;;;3.72;3.53;;;11.40;63.40;;;;;;5053270;28;20231;-66
2021/03/14 10:21:18;;;;;;;6.82;3.70;;;11.50;63.50;;;;;;5075695;28;20217;-66
2021/03/14 10:23:46;;;;;;;4.10;3.70;;;11.50;64.00;;;;;;5076151;28;20240;-66
2021/03/14 10:26:14;;;;;;;3.95;3.65;;;11.50;63.70;;;;;;5075122;28;20213;-65
2021/03/14 10:28:44;;;;;;;3.38;3.13;;;11.70;63.40;;;;;;5073321;28;20428;-66
2021/03/14 10:31:11;;;;;;;6.78;5.80;;;11.80;62.10;;;;;;5075737;28;20422;-66
2021/03/14 10:33:45;;;;;;;4.90;4.22;;;11.70;62.40;;;;;;5076130;28;20228;-66
2021/03/14 10:36:17;;;;;;;4.65;3.83;;;11.50;64.00;;;;;;5072613;28;20606;-65
2021/03/14 10:38:52;;;;;;;4.38;4.07;;;11.30;64.70;;;;;;5073048;28;20656;-65
2021/03/14 10:41:23;;;;;;;4.07;3.78;;;11.10;65.10;;;;;;5070338;28;20503;-65
2021/03/14 10:44:02;;;;;;;4.55;4.25;;;10.60;66.90;;;;;;5073166;28;20210;-66
2021/03/14 10:46:40;;;;;;;5.28;4.40;;;10.60;68.50;;;;;;5049095;28;20203;-65
2021/03/14 10:49:14;;;;;;;7.80;4.00;;;10.90;68.30;;;;;;5052015;28;20225;-66
2021/03/14 10:51:43;;;;;;;4.35;3.95;;;10.90;68.70;;;;;;5054274;28;20238;-65
2021/03/14 10:54:14;;;;;;;5.70;4.22;;;10.50;70.00;;;;;;5056236;28;20211;-65
2021/03/14 10:56:45;;;;;;;5.07;4.68;;;10.10;72.30;;;;;;5055002;28;20210;-66
2021/03/14 10:59:29;;;;;;;5.28;4.68;;;9.90;74.10;;;;;;5056552;28;20234;-68
2021/03/14 11:02:42;;;;;;;3.63;3.42;;;9.60;75.90;;;;;;5053820;28;20263;-66
2021/03/14 11:05:08;;;;;;;4.00;3.70;;;9.50;77.10;;;;;;5051573;28;20222;-64
2021/03/14 11:07:37;;;;;;;4.35;4.05;;;9.70;77.90;;;;;;5054955;28;20206;-67
2021/03/14 11:10:08;;;;;;;5.15;4.70;;;9.70;77.60;;;;;;5051337;28;20213;-67
2021/03/14 11:12:37;;;;;;;4.40;4.10;;;9.50;77.20;;;;;;5052083;28;20205;-64
2021/03/14 11:15:26;;;;;;;4.13;3.83;;;9.20;78.90;;;;;;5052347;28;20663;-67
2021/03/14 11:17:54;;;;;;;4.40;4.00;;;9.30;79.20;;;;;;5055117;28;20593;-66
2021/03/14 11:20:23;;;;;;;3.92;3.63;;;9.50;78.00;;;;;;5052027;28;20440;-65
2021/03/14 11:22:51;;;;;;;4.78;4.22;;;9.90;76.00;;;;;;5048857;28;20211;-67
2021/03/14 11:25:19;;;;;;;4.28;3.88;;;10.30;74.70;;;;;;5053399;28;20237;-65
2021/03/14 11:27:51;;;;;;;3.85;3.55;;;10.50;73.10;;;;;;5050419;28;20205;-66
2021/03/14 11:30:20;;;;;;;3.70;3.40;;;10.40;73.10;;;;;;5042710;28;20218;-66
2021/03/14 11:32:47;;;;;;;4.43;4.03;;;10.50;73.00;;;;;;5053123;28;20215;-65
2021/03/14 11:35:14;;;;;;;4.85;4.55;;;10.40;73.10;;;;;;5053217;28;20215;-65
2021/03/14 11:37:41;;;;;;;4.30;3.88;;;10.20;74.30;;;;;;5054776;28;20229;-64
2021/03/14 11:40:09;;;;;;;4.38;3.97;;;10.10;75.60;;;;;;5053628;28;20237;-65
2021/03/14 11:42:36;;;;;;;4.38;4.07;;;9.90;76.40;;;;;;5055397;28;20251;-65
2021/03/14 11:45:05;;;;;;;9.10;4.70;;;9.70;76.80;;;;;;5063695;28;20240;-65
2021/03/14 11:47:34;;;;;;;4.53;4.13;;;9.30;78.20;;;;;;5074544;28;20207;-64
2021/03/14 11:50:01;;;;;;;4.65;4.32;;;9.30;78.60;;;;;;5071899;28;20216;-66
2021/03/14 11:52:28;;;;;;;4.40;4.03;;;9.40;78.10;;;;;;5073128;28;20220;-65
2021/03/14 11:54:54;;;;;;;5.43;4.93;;;9.50;78.10;;;;;;5071974;28;20209;-66
2021/03/14 11:57:22;;;;;;;6.88;4.55;;;9.60;77.80;;;;;;5073623;28;20209;-65
2021/03/14 11:59:48;;;;;;;4.95;4.55;;;9.50;78.40;;;;;;5073096;28;20243;-66
2021/03/14 12:02:15;;;;;;;5.18;4.68;;;9.60;78.50;;;;;;5073644;28;20199;-66
2021/03/14 12:04:41;;;;;;;4.50;4.20;;;9.60;79.30;;;;;;5074966;28;20236;-65
2021/03/14 12:07:08;;;;;;;4.07;3.80;;;9.60;78.10;;;;;;5069732;28;20215;-65
2021/03/14 12:09:35;;;;;;;4.13;3.83;;;9.70;78.10;;;;;;5075109;28;20274;-66
2021/03/14 12:12:04;;;;;;;3.33;3.17;;;9.70;77.80;;;;;;5071536;28;20210;-66
2021/03/14 12:14:31;;;;;;;3.80;3.60;;;9.40;78.90;;;;;;5056293;28;20212;-65
2021/03/14 12:16:57;;;;;;;3.80;3.60;;;9.30;78.90;;;;;;5072516;28;20206;-66
2021/03/14 12:19:24;;;;;;;3.50;3.20;;;9.30;79.80;;;;;;5072150;28;20225;-66
2021/03/14 12:21:51;;;;;;;4.03;3.75;;;9.10;80.40;;;;;;5070712;28;20294;-66
2021/03/14 12:24:17;;;;;;;4.43;3.92;;;9.10;80.30;;;;;;5066828;28;20211;-66
2021/03/14 12:26:44;;;;;;;4.47;4.07;;;9.00;80.70;;;;;;5061187;28;20212;-66
2021/03/14 12:29:12;;;;;;;5.43;4.38;;;8.90;82.10;;;;;;5075603;28;20208;-66
2021/03/14 12:31:38;;;;;;;3.65;3.45;;;8.80;81.50;;;;;;5078542;28;20214;-66
2021/03/14 12:34:05;;;;;;;3.80;3.50;;;8.70;81.50;;;;;;5074955;28;20274;-67
2021/03/14 12:36:32;;;;;;;4.75;3.25;;;8.70;81.60;;;;;;5078693;28;20227;-66
2021/03/14 12:38:58;;;;;;;3.80;3.60;;;8.70;81.30;;;;;;5077866;28;20415;-66
2021/03/14 12:41:25;;;;;;;4.30;3.15;;;8.70;81.50;;;;;;5072656;28;20210;-65
2021/03/14 12:43:51;;;;;;;3.08;2.88;;;8.70;81.40;;;;;;5062468;28;20225;-64
2021/03/14 12:46:18;;;;;;;4.07;3.40;;;8.90;81.00;;;;;;5075163;28;20231;-66
2021/03/14 12:48:45;;;;;;;4.43;4.13;;;9.10;79.30;;;;;;5044332;28;20641;-66
2021/03/14 12:51:11;;;;;;;5.82;3.85;;;9.30;79.30;;;;;;5064497;28;20212;-65
2021/03/14 12:53:38;;;;;;;3.92;3.63;;;9.20;79.10;;;;;;5056495;28;20205;-66
2021/03/14 12:56:05;;;;;;;3.10;2.90;;;9.10;79.70;;;;;;5077243;28;20485;-66
2021/03/14 12:58:32;;;;;;;4.10;3.80;;;9.20;79.70;;;;;;5072914;28;20205;-65
2021/03/14 13:00:58;;;;;;;3.75;3.45;;;9.30;79.50;;;;;;5079221;28;20204;-65
2021/03/14 13:03:25;;;;;;;4.30;3.90;;;9.50;79.90;;;;;;5076211;28;20262;-65
2021/03/14 13:05:53;;;;;;;4.00;3.70;;;9.60;79.30;;;;;;5072615;28;20204;-65
2021/03/14 13:08:19;;;;;;;4.03;3.67;;;9.70;77.60;;;;;;5055628;28;20209;-66